createdAt,value
2019-01-21T00:01:43.087Z,67.40
2019-01-21T00:04:12.660Z,76.53
2019-01-21T00:06:42.226Z,66.47
2019-01-21T00:09:11.812Z,49.90
2019-01-21T00:11:41.354Z,42.97
2019-01-21T00:14:10.928Z,37.53
2019-01-21T00:16:40.473Z,45.43
2019-01-21T00:19:10.037Z,47.57
2019-01-21T00:21:39.849Z,47.43
2019-01-21T00:24:09.437Z,40.40
2019-01-21T00:26:38.995Z,37.70
2019-01-21T00:29:08.817Z,36.27
2019-01-21T00:31:38.356Z,36.70
2019-01-21T00:34:07.954Z,37.40
2019-01-21T00:36:39.549Z,38.30
2019-01-21T00:39:09.200Z,32.70
2019-01-21T00:41:38.780Z,36.80
2019-01-21T00:44:08.346Z,35.40
2019-01-21T00:46:37.905Z,30.70
2019-01-21T00:49:07.501Z,32.13
2019-01-21T00:51:37.124Z,32.40
2019-01-21T00:54:06.692Z,26.60
2019-01-21T00:56:36.264Z,29.17
2019-01-21T00:59:05.822Z,30.13
2019-01-21T01:01:35.375Z,28.93
2019-01-21T01:04:05.014Z,28.27
2019-01-21T01:06:34.556Z,30.70
2019-01-21T01:09:06.523Z,29.37
2019-01-21T01:11:36.062Z,29.23
2019-01-21T01:14:05.865Z,31.27
2019-01-21T01:16:35.416Z,30.40
2019-01-21T01:19:05.061Z,31.13
2019-01-21T01:21:34.602Z,32.13
2019-01-21T01:24:07.392Z,28.90
2019-01-21T01:26:36.980Z,28.97
2019-01-21T01:29:06.540Z,30.07
2019-01-21T01:31:36.921Z,30.30
2019-01-21T01:34:06.459Z,28.70
2019-01-21T01:36:36.024Z,27.33
2019-01-21T01:39:07.881Z,28.33
2019-01-21T01:41:37.440Z,30.73
2019-01-21T01:44:07.030Z,29.00
2019-01-21T01:46:36.583Z,33.47
2019-01-21T01:49:06.179Z,29.43
2019-01-21T01:51:38.157Z,33.53
2019-01-21T01:54:07.711Z,29.07
2019-01-21T01:56:38.199Z,27.67
2019-01-21T01:59:07.778Z,26.60
2019-01-21T02:01:38.880Z,27.13
2019-01-21T02:04:08.466Z,26.93
2019-01-21T02:06:38.021Z,25.83
2019-01-21T02:09:08.614Z,29.43
2019-01-21T02:11:39.761Z,27.10
2019-01-21T02:14:09.294Z,29.47
2019-01-21T02:16:38.951Z,28.30
2019-01-21T02:19:08.533Z,27.13
2019-01-21T02:21:38.654Z,26.23
2019-01-21T02:24:08.630Z,28.07
2019-01-21T02:26:42.713Z,27.50
2019-01-21T02:29:16.659Z,27.80
2019-01-21T02:32:06.415Z,27.90
2019-01-21T02:34:49.258Z,26.80
2019-01-21T02:37:28.908Z,29.10
2019-01-21T02:40:42.114Z,27.47
2019-01-21T02:43:38.777Z,25.73
2019-01-21T02:46:27.836Z,27.03
2019-01-21T02:49:25.394Z,28.37
2019-01-21T02:52:25.056Z,30.37
2019-01-21T02:55:42.699Z,30.40
2019-01-21T02:58:31.484Z,25.30
2019-01-21T03:01:22.427Z,27.63
2019-01-21T03:04:05.550Z,26.13
2019-01-21T03:06:56.074Z,25.17
2019-01-21T03:09:48.140Z,23.57
2019-01-21T03:12:40.437Z,27.00
2019-01-21T03:15:52.232Z,27.60
2019-01-21T03:18:31.999Z,27.10
2019-01-21T03:21:26.949Z,28.20
2019-01-21T03:24:17.605Z,28.00
2019-01-21T03:26:54.742Z,25.47
2019-01-21T03:29:59.145Z,26.47
2019-01-21T03:32:53.965Z,25.40
2019-01-21T03:36:00.979Z,29.90
2019-01-21T03:38:44.360Z,24.43
2019-01-21T03:41:27.321Z,25.27
2019-01-21T03:44:10.450Z,24.93
2019-01-21T03:46:53.506Z,25.20
2019-01-21T03:49:45.342Z,22.83
2019-01-21T03:52:34.145Z,24.90
2019-01-21T03:55:07.896Z,24.37
2019-01-21T03:57:47.609Z,22.70
2019-01-21T04:00:21.869Z,25.13
2019-01-21T04:02:58.847Z,25.60
2019-01-21T04:05:42.040Z,23.40
2019-01-21T04:08:34.352Z,25.77
2019-01-21T04:11:28.658Z,21.67
2019-01-21T04:14:14.963Z,23.27
2019-01-21T04:16:51.988Z,23.80
2019-01-21T04:19:28.964Z,23.90
2019-01-21T04:22:19.593Z,23.67
2019-01-21T04:24:56.420Z,25.83
2019-01-21T04:27:50.206Z,24.27
2019-01-21T04:30:36.238Z,22.83
2019-01-21T04:33:36.878Z,19.20
2019-01-21T04:36:44.041Z,22.23
2019-01-21T04:39:20.886Z,23.23
2019-01-21T04:42:30.861Z,23.07
2019-01-21T04:45:10.697Z,23.57
2019-01-21T04:48:13.058Z,22.03
2019-01-21T04:51:11.063Z,20.23
2019-01-21T04:53:50.184Z,22.20
2019-01-21T04:56:57.341Z,21.17
2019-01-21T04:59:54.628Z,23.77
2019-01-21T05:02:40.412Z,23.27
2019-01-21T05:05:32.567Z,23.00
2019-01-21T05:08:39.708Z,20.50
2019-01-21T05:11:50.656Z,20.90
2019-01-21T05:14:50.322Z,20.70
2019-01-21T05:17:55.042Z,20.57
2019-01-21T05:20:59.192Z,20.03
2019-01-21T05:24:10.088Z,21.07
2019-01-21T05:26:49.375Z,21.50
2019-01-21T05:29:35.265Z,20.33
2019-01-21T05:32:39.774Z,20.40
2019-01-21T05:35:48.821Z,21.40
2019-01-21T05:38:34.559Z,21.20
2019-01-21T05:41:21.148Z,21.00
2019-01-21T05:44:12.868Z,23.73
2019-01-21T05:47:14.078Z,24.23
2019-01-21T05:50:13.039Z,21.30
2019-01-21T05:52:58.740Z,23.30
2019-01-21T05:56:05.802Z,19.80
2019-01-21T05:58:54.803Z,20.63
2019-01-21T06:01:52.652Z,22.50
2019-01-21T06:04:44.820Z,21.93
2019-01-21T06:07:56.576Z,33.00
2019-01-21T06:10:51.172Z,95.93
2019-01-21T06:13:49.306Z,123.17
2019-01-21T06:16:35.200Z,85.83
2019-01-21T06:19:27.154Z,80.30
2019-01-21T06:22:29.893Z,48.30
2019-01-21T06:25:17.433Z,49.80
2019-01-21T06:28:00.325Z,34.13
2019-01-21T06:30:34.562Z,43.43
2019-01-21T06:33:37.166Z,47.63
2019-01-21T06:36:15.540Z,68.83
2019-01-21T06:39:27.044Z,44.50
2019-01-21T06:42:31.787Z,34.33
2019-01-21T06:45:37.258Z,29.27
2019-01-21T06:48:29.505Z,35.07
2019-01-21T06:51:12.249Z,29.00
2019-01-21T06:53:58.187Z,21.67
2019-01-21T06:56:47.315Z,23.57
2019-01-21T06:59:58.714Z,20.00
2019-01-21T07:02:55.343Z,21.40
2019-01-21T07:05:47.497Z,25.60
2019-01-21T07:11:14.042Z,20.57
2019-01-21T07:14:00.033Z,19.47
2019-01-21T07:16:46.048Z,16.70
2019-01-21T07:19:36.901Z,20.67
2019-01-21T07:22:28.585Z,15.57
2019-01-21T07:25:25.325Z,16.33
2019-01-21T07:28:08.537Z,21.30
2019-01-21T07:31:06.750Z,20.20
2019-01-21T07:34:05.150Z,22.33
2019-01-21T07:36:45.920Z,23.50
2019-01-21T07:39:33.831Z,22.20
2019-01-21T07:42:31.878Z,23.10
2019-01-21T07:45:14.978Z,18.50
2019-01-21T07:48:16.239Z,20.27
2019-01-21T07:51:15.496Z,21.40
2019-01-21T07:53:58.540Z,16.70
2019-01-21T07:56:38.231Z,24.40
2019-01-21T07:59:51.593Z,20.03
2019-01-21T08:02:31.664Z,19.67
2019-01-21T08:05:29.650Z,18.37
2019-01-21T08:08:12.990Z,19.37
2019-01-21T08:11:14.504Z,25.20
2019-01-21T08:13:48.771Z,19.17
2019-01-21T08:16:52.726Z,22.50
2019-01-21T08:19:46.340Z,20.03
2019-01-21T08:22:54.744Z,19.70
2019-01-21T08:25:49.973Z,23.93
2019-01-21T08:28:30.233Z,25.33
2019-01-21T08:31:24.821Z,22.33
2019-01-21T08:34:47.221Z,23.03
2019-01-21T08:37:44.754Z,22.53
2019-01-21T08:40:33.875Z,25.57
2019-01-21T08:43:46.748Z,21.07
2019-01-21T08:46:32.497Z,21.97
2019-01-21T08:49:12.068Z,21.70
2019-01-21T08:51:48.850Z,21.53
2019-01-21T08:54:44.123Z,21.13
2019-01-21T08:57:42.896Z,24.23
2019-01-21T09:00:19.968Z,25.07
2019-01-21T09:03:19.291Z,23.13
2019-01-21T09:05:53.542Z,23.90
2019-01-21T09:08:52.879Z,26.50
2019-01-21T09:11:32.040Z,23.87
2019-01-21T09:14:46.602Z,22.00
2019-01-21T09:17:35.928Z,25.13
2019-01-21T09:20:21.933Z,23.13
2019-01-21T09:23:09.225Z,20.93
2019-01-21T09:25:55.102Z,20.57
2019-01-21T09:28:57.218Z,18.30
2019-01-21T09:31:52.486Z,20.60
2019-01-21T09:34:48.947Z,18.87
2019-01-21T09:37:37.191Z,19.47
2019-01-21T09:40:26.394Z,20.57
2019-01-21T09:43:15.805Z,17.50
2019-01-21T09:45:52.797Z,17.50
2019-01-21T09:48:20.992Z,18.37
2019-01-21T09:50:51.726Z,16.93
2019-01-21T09:53:24.205Z,18.40
2019-01-21T09:55:55.890Z,21.13
2019-01-21T09:58:25.727Z,18.30
2019-01-21T10:00:56.210Z,20.47
2019-01-21T10:03:26.197Z,20.80
2019-01-21T10:06:00.978Z,20.70
2019-01-21T10:08:44.076Z,20.07
2019-01-21T10:11:40.789Z,19.83
2019-01-21T10:14:59.729Z,21.03
2019-01-21T10:17:59.729Z,19.57
2019-01-21T10:20:54.968Z,20.53
2019-01-21T10:23:41.452Z,19.30
2019-01-21T10:26:34.695Z,19.10
2019-01-21T10:29:37.114Z,18.33
2019-01-21T10:32:43.008Z,19.63
2019-01-21T10:35:40.148Z,18.00
2019-01-21T10:38:51.672Z,18.27
2019-01-21T10:41:46.634Z,20.23
2019-01-21T10:44:27.069Z,20.03
2019-01-21T10:47:25.345Z,19.70
2019-01-21T10:50:11.406Z,19.73
2019-01-21T10:53:04.886Z,19.93
2019-01-21T10:55:59.888Z,23.53
2019-01-21T10:58:46.428Z,20.00
2019-01-21T11:01:52.837Z,21.37
2019-01-21T11:05:00.773Z,22.73
2019-01-21T11:07:41.202Z,20.27
2019-01-21T11:11:05.695Z,20.17
2019-01-21T11:14:12.389Z,21.87
2019-01-21T11:17:06.723Z,22.63
2019-01-21T11:20:18.898Z,20.07
2019-01-21T11:23:01.697Z,23.13
2019-01-21T11:26:12.999Z,20.47
2019-01-21T11:28:51.062Z,21.97
2019-01-21T11:31:40.926Z,20.73
2019-01-21T11:34:33.257Z,20.53
2019-01-21T11:37:23.635Z,21.63
2019-01-21T11:40:34.415Z,22.67
2019-01-21T11:43:23.723Z,26.17
2019-01-21T11:46:22.002Z,21.33
2019-01-21T11:49:32.801Z,21.80
2019-01-21T11:52:25.313Z,21.10
2019-01-21T11:55:23.496Z,21.70
2019-01-21T11:58:18.678Z,18.47
2019-01-21T12:00:58.771Z,21.07
2019-01-21T12:03:45.138Z,20.73
2019-01-21T12:06:15.384Z,20.47
2019-01-21T12:08:55.819Z,22.87
2019-01-21T12:11:39.151Z,22.10
2019-01-21T12:14:25.436Z,20.60
2019-01-21T12:17:14.493Z,21.27
2019-01-21T12:20:19.231Z,19.73
2019-01-21T12:23:19.338Z,18.97
2019-01-21T12:25:56.764Z,20.97
2019-01-21T12:28:52.201Z,20.23
2019-01-21T12:31:35.275Z,21.33
2019-01-21T12:34:21.792Z,19.90
2019-01-21T12:36:59.412Z,22.20
2019-01-21T12:39:51.691Z,21.53
2019-01-21T12:42:43.863Z,20.40
2019-01-21T12:45:33.025Z,19.37
2019-01-21T12:48:15.828Z,22.67
2019-01-21T12:51:02.213Z,18.17
2019-01-21T12:53:51.235Z,23.97
2019-01-21T12:56:37.412Z,23.97
2019-01-21T12:59:36.942Z,19.23
2019-01-21T13:02:16.942Z,21.23
2019-01-21T13:04:59.323Z,19.47
2019-01-21T13:07:39.256Z,19.70
2019-01-21T13:10:36.001Z,22.67
2019-01-21T13:13:44.567Z,21.20
2019-01-21T13:16:24.742Z,19.67
2019-01-21T13:19:36.534Z,21.03
2019-01-21T13:22:39.278Z,21.37
2019-01-21T13:25:32.751Z,21.43
2019-01-21T13:28:24.393Z,20.87
2019-01-21T13:31:32.382Z,23.80
2019-01-21T13:34:27.781Z,20.03
2019-01-21T13:37:13.588Z,26.23
2019-01-21T13:40:19.958Z,25.10
2019-01-21T13:43:15.038Z,22.40
2019-01-21T13:45:54.795Z,20.73
2019-01-21T13:48:34.538Z,18.80
2019-01-21T13:51:11.862Z,20.43
2019-01-21T13:54:09.860Z,20.87
2019-01-21T13:56:52.913Z,22.53
2019-01-21T14:00:09.002Z,20.63
2019-01-21T14:02:45.241Z,17.90
2019-01-21T14:05:30.852Z,20.27
2019-01-21T14:08:15.927Z,19.87
2019-01-21T14:11:16.810Z,23.17
2019-01-21T14:13:53.689Z,20.10
2019-01-21T14:16:55.570Z,20.47
2019-01-21T14:19:36.159Z,18.83
2019-01-21T14:22:34.350Z,18.80
2019-01-21T14:25:35.541Z,19.87
2019-01-21T14:28:27.508Z,15.63
2019-01-21T14:31:28.576Z,20.37
2019-01-21T14:34:09.428Z,19.03
2019-01-21T14:37:02.648Z,18.17
2019-01-21T14:39:42.167Z,20.37
2019-01-21T14:42:31.100Z,18.33
2019-01-21T14:45:31.033Z,20.70
2019-01-21T14:48:24.829Z,19.27
2019-01-21T14:51:28.455Z,21.47
2019-01-21T14:54:13.761Z,18.77
2019-01-21T14:57:10.302Z,19.60
2019-01-21T15:00:05.671Z,19.20
2019-01-21T15:02:54.539Z,18.63
2019-01-21T15:06:08.931Z,19.50
2019-01-21T15:08:43.292Z,18.17
2019-01-21T15:11:21.344Z,20.57
2019-01-21T15:14:07.184Z,24.97
2019-01-21T15:16:47.069Z,23.57
2019-01-21T15:19:21.342Z,20.80
2019-01-21T15:22:19.758Z,23.80
2019-01-21T15:25:18.910Z,20.40
2019-01-21T15:28:11.114Z,20.23
2019-01-21T15:31:00.150Z,19.97
2019-01-21T15:33:40.191Z,21.77
2019-01-21T15:36:43.381Z,23.17
2019-01-21T15:39:20.523Z,21.63
2019-01-21T15:42:29.392Z,27.03
2019-01-21T15:45:18.202Z,24.47
2019-01-21T15:48:04.235Z,25.70
2019-01-21T15:50:41.296Z,25.10
2019-01-21T15:53:42.708Z,25.70
2019-01-21T15:56:26.751Z,21.20
2019-01-21T15:59:09.724Z,21.70
2019-01-21T16:01:49.907Z,23.27
2019-01-21T16:04:38.583Z,21.53
2019-01-21T16:07:15.625Z,24.73
2019-01-21T16:10:04.193Z,27.10
2019-01-21T16:12:59.313Z,23.33
2019-01-21T16:16:05.729Z,28.43
2019-01-21T16:18:45.834Z,23.43
2019-01-21T16:21:23.571Z,24.73
2019-01-21T16:24:20.210Z,26.67
2019-01-21T16:27:31.480Z,22.80
2019-01-21T16:30:28.912Z,23.00
2019-01-21T16:33:14.819Z,21.27
2019-01-21T16:36:16.180Z,22.33
2019-01-21T16:38:50.726Z,22.97
2019-01-21T16:41:44.820Z,26.03
2019-01-21T16:44:14.904Z,28.53
2019-01-21T16:46:52.306Z,25.03
2019-01-21T16:49:22.004Z,24.90
2019-01-21T16:51:51.755Z,21.47
2019-01-21T16:54:21.415Z,22.80
2019-01-21T16:56:51.212Z,23.13
2019-01-21T16:59:27.373Z,27.03
2019-01-21T17:01:57.055Z,21.50
2019-01-21T17:04:27.115Z,24.37
2019-01-21T17:06:56.918Z,22.80
2019-01-21T17:09:26.705Z,24.40
2019-01-21T17:11:56.442Z,26.93
2019-01-21T17:14:26.049Z,27.20
2019-01-21T17:16:55.913Z,28.50
2019-01-21T17:19:25.866Z,26.43
2019-01-21T17:21:56.037Z,28.40
2019-01-21T17:24:27.345Z,27.33
2019-01-21T17:26:57.193Z,26.33
2019-01-21T17:29:26.820Z,33.77
2019-01-21T17:31:57.328Z,25.20
2019-01-21T17:34:27.095Z,24.37
2019-01-21T17:36:57.081Z,25.93
2019-01-21T17:39:26.711Z,25.93
2019-01-21T17:41:56.794Z,24.17
2019-01-21T17:44:29.377Z,24.03
2019-01-21T17:46:59.920Z,26.73
2019-01-21T17:49:29.668Z,25.13
2019-01-21T17:51:59.408Z,27.10
2019-01-21T17:54:34.641Z,24.80
2019-01-21T17:57:00.435Z,25.13
2019-01-21T17:59:30.143Z,25.90
2019-01-21T18:01:59.792Z,28.37
2019-01-21T18:04:29.489Z,26.67
2019-01-21T18:07:02.082Z,27.50
2019-01-21T18:09:31.826Z,24.87
2019-01-21T18:12:02.053Z,32.07
2019-01-21T18:14:32.149Z,31.97
2019-01-21T18:17:01.834Z,28.67
2019-01-21T18:19:32.001Z,28.93
2019-01-21T18:22:02.410Z,27.20
2019-01-21T18:24:32.829Z,25.90
2019-01-21T18:27:03.034Z,28.77
2019-01-21T18:29:33.213Z,25.87
2019-01-21T18:32:05.287Z,31.67
2019-01-21T18:34:36.287Z,30.07
2019-01-21T18:37:07.616Z,32.00
2019-01-21T18:39:38.391Z,29.23
2019-01-21T18:42:08.723Z,26.60
2019-01-21T18:44:39.568Z,28.30
2019-01-21T18:47:12.037Z,29.70
2019-01-21T18:49:43.630Z,31.10
2019-01-21T18:52:16.251Z,29.77
2019-01-21T18:54:47.093Z,26.73
2019-01-21T18:57:17.631Z,32.60
2019-01-21T18:59:48.556Z,39.83
2019-01-21T19:02:19.690Z,32.37
2019-01-21T19:04:50.466Z,25.47
2019-01-21T19:07:21.310Z,91.63
2019-01-21T19:09:52.359Z,39.87
2019-01-21T19:12:23.966Z,26.90
2019-01-21T19:14:54.535Z,32.23
2019-01-21T19:17:24.874Z,27.33
2019-01-21T19:19:55.319Z,31.40
2019-01-21T19:22:25.996Z,28.37
2019-01-21T19:24:56.602Z,27.40
2019-01-21T19:27:27.904Z,27.13
2019-01-21T19:29:58.059Z,24.57
2019-01-21T19:32:28.535Z,27.27
2019-01-21T19:34:58.640Z,27.07
2019-01-21T19:37:28.809Z,26.57
2019-01-21T19:39:59.273Z,26.47
2019-01-21T19:42:29.677Z,25.23
2019-01-21T19:44:59.899Z,26.83
2019-01-21T19:47:30.524Z,31.70
2019-01-21T19:50:00.954Z,27.23
2019-01-21T19:52:32.469Z,28.13
2019-01-21T19:55:02.727Z,27.43
2019-01-21T19:57:35.089Z,26.93
2019-01-21T20:00:08.715Z,30.30
2019-01-21T20:02:39.099Z,28.73
2019-01-21T20:05:11.584Z,30.33
2019-01-21T20:07:44.320Z,27.83
2019-01-21T20:10:22.453Z,27.97
2019-01-21T20:12:52.872Z,27.63
2019-01-21T20:15:23.371Z,27.83
2019-01-21T20:17:53.510Z,28.20
2019-01-21T20:20:27.796Z,27.37
2019-01-21T20:23:04.884Z,26.53
2019-01-21T20:25:36.965Z,27.30
2019-01-21T20:28:07.336Z,30.27
2019-01-21T20:30:37.743Z,28.87
2019-01-21T20:33:08.273Z,29.73
2019-01-21T20:35:39.111Z,28.47
2019-01-21T20:38:19.594Z,32.33
2019-01-21T20:40:50.919Z,27.13
2019-01-21T20:43:21.979Z,29.70
2019-01-21T20:45:53.588Z,28.60
2019-01-21T20:48:25.271Z,28.53
2019-01-21T20:50:55.839Z,26.40
2019-01-21T20:53:26.236Z,28.80
2019-01-21T20:56:11.541Z,31.23
2019-01-21T20:58:41.718Z,30.30
2019-01-21T21:01:13.831Z,29.53
2019-01-21T21:03:44.722Z,30.50
2019-01-21T21:06:15.282Z,28.23
2019-01-21T21:08:45.774Z,31.80
2019-01-21T21:11:17.298Z,27.03
2019-01-21T21:13:47.907Z,28.30
2019-01-21T21:16:18.469Z,29.23
2019-01-21T21:18:50.415Z,28.20
2019-01-21T21:21:20.650Z,27.13
2019-01-21T21:23:51.042Z,28.93
2019-01-21T21:26:21.672Z,28.47
2019-01-21T21:28:51.999Z,28.60
2019-01-21T21:31:22.138Z,28.67
2019-01-21T21:33:53.993Z,27.27
2019-01-21T21:36:24.059Z,29.07
2019-01-21T21:38:57.613Z,27.53
2019-01-21T21:41:28.735Z,29.30
2019-01-21T21:43:59.415Z,27.40
2019-01-21T21:46:29.985Z,33.27
2019-01-21T21:49:00.747Z,28.90
2019-01-21T21:51:38.981Z,34.83
2019-01-21T21:54:47.924Z,31.60
2019-01-21T21:57:18.507Z,35.40
2019-01-21T21:59:49.038Z,33.90
2019-01-21T22:02:21.168Z,28.90
2019-01-21T22:04:51.980Z,28.80
2019-01-21T22:07:22.511Z,30.03
2019-01-21T22:09:55.226Z,30.00
2019-01-21T22:12:27.636Z,31.80
2019-01-21T22:15:03.374Z,29.80
2019-01-21T22:17:36.257Z,32.63
2019-01-21T22:20:14.966Z,30.20
2019-01-21T22:22:45.181Z,29.93
2019-01-21T22:25:19.658Z,29.83
2019-01-21T22:27:50.893Z,35.07
2019-01-21T22:30:29.958Z,31.07
2019-01-21T22:33:01.870Z,32.43
2019-01-21T22:35:34.026Z,29.83
2019-01-21T22:38:05.867Z,32.73
2019-01-21T22:40:44.549Z,32.10
2019-01-21T22:43:25.959Z,30.70
2019-01-21T22:45:58.886Z,31.40
2019-01-21T22:48:32.893Z,31.23
2019-01-21T22:51:04.400Z,30.17
2019-01-21T22:53:34.949Z,31.03
2019-01-21T22:56:08.792Z,32.63
2019-01-21T22:58:39.131Z,30.93
2019-01-21T23:01:13.795Z,29.27
2019-01-21T23:03:44.031Z,29.87
2019-01-21T23:06:20.404Z,30.17
2019-01-21T23:08:52.860Z,29.83
2019-01-21T23:11:24.949Z,32.90
2019-01-21T23:13:57.039Z,31.70
2019-01-21T23:16:49.495Z,30.90
2019-01-21T23:19:19.688Z,31.83
2019-01-21T23:21:51.130Z,28.07
2019-01-21T23:24:23.203Z,30.70
2019-01-21T23:26:54.542Z,29.83
2019-01-21T23:29:25.286Z,30.53
2019-01-21T23:35:06.740Z,32.87
2019-01-21T23:37:36.657Z,31.60
2019-01-21T23:40:10.987Z,31.60
2019-01-21T23:42:53.341Z,29.90
2019-01-21T23:45:22.546Z,30.50
2019-01-21T23:47:53.290Z,32.20
2019-01-21T23:50:23.363Z,29.00
2019-01-21T23:52:56.177Z,31.17
2019-01-21T23:55:24.771Z,34.70
2019-01-21T23:57:54.585Z,71.40
